ETNL/RLG METAR and TAF weather

Enter ICAO airport designator
Station Type Date Time Source
ETNL METAR 2021/08/04 18:20 UTC NOAA

ETNL 041820Z 06007KT 9999 FEW035 18/12 Q1013 BLU+


Station Type Date Time Source
ETNL Decoded METAR 2021/08/04 18:20 UTC NOAA

Laage, Germany (ETNL) 53-55N 012-17E 46M
Aug 04, 2021 - 02:20 PM EDT / 2021.08.04 1820 UTC
Wind: from the ENE (060 degrees) at 8 MPH (7 KT):0
Visibility: greater than 7 mile(s):0
Sky conditions: mostly clear
Temperature: 64 F (18 C)
Dew Point: 53 F (12 C)
Relative Humidity: 67%
Pressure (altimeter): 29.91 in. Hg (1013 hPa)
ob: ETNL 041820Z 06007KT 9999 FEW035 18/12 Q1013 BLU+
cycle: 18

Station Type Date Time Source
ETNL TAF 2021/04/25 17:35 UTC NOAA

TAF ETNL 251600Z 2517/2606 30005KT 9999 NSW FEW060 BY ETGL

Example: see airport list